sensor_id;sensor_type;location;lat;lon;timestamp;P1;durP1;ratioP1;P2;durP2;ratioP2
68212;SDS011;55035;47.792;8.724;2022-07-29T00:00:30;13.80;;;8.20;;
68212;SDS011;55035;47.792;8.724;2022-07-29T00:02:56;11.32;;;7.55;;
68212;SDS011;55035;47.792;8.724;2022-07-29T00:05:25;12.20;;;8.20;;
68212;SDS011;55035;47.792;8.724;2022-07-29T00:07:51;13.00;;;8.40;;
68212;SDS011;55035;47.792;8.724;2022-07-29T00:10:18;11.65;;;7.97;;
68212;SDS011;55035;47.792;8.724;2022-07-29T00:12:45;12.05;;;7.50;;
68212;SDS011;55035;47.792;8.724;2022-07-29T00:15:13;10.48;;;7.20;;
68212;SDS011;55035;47.792;8.724;2022-07-29T00:17:39;12.18;;;7.90;;
68212;SDS011;55035;47.792;8.724;2022-07-29T00:20:07;11.80;;;7.90;;
68212;SDS011;55035;47.792;8.724;2022-07-29T00:22:37;11.95;;;7.90;;
68212;SDS011;55035;47.792;8.724;2022-07-29T00:25:05;12.73;;;8.43;;
68212;SDS011;55035;47.792;8.724;2022-07-29T00:27:32;11.73;;;7.65;;
68212;SDS011;55035;47.792;8.724;2022-07-29T00:29:59;14.38;;;7.70;;
68212;SDS011;55035;47.792;8.724;2022-07-29T00:32:25;11.95;;;7.88;;
68212;SDS011;55035;47.792;8.724;2022-07-29T00:34:52;11.80;;;8.27;;
68212;SDS011;55035;47.792;8.724;2022-07-29T00:37:38;14.10;;;9.38;;
68212;SDS011;55035;47.792;8.724;2022-07-29T00:40:05;13.15;;;9.15;;
68212;SDS011;55035;47.792;8.724;2022-07-29T00:42:40;12.98;;;8.35;;
68212;SDS011;55035;47.792;8.724;2022-07-29T00:45:08;12.32;;;8.00;;
68212;SDS011;55035;47.792;8.724;2022-07-29T00:47:34;14.07;;;9.00;;
68212;SDS011;55035;47.792;8.724;2022-07-29T00:50:01;11.63;;;7.97;;
68212;SDS011;55035;47.792;8.724;2022-07-29T00:52:29;14.50;;;9.75;;
68212;SDS011;55035;47.792;8.724;2022-07-29T00:54:58;13.93;;;9.87;;
68212;SDS011;55035;47.792;8.724;2022-07-29T00:57:24;13.23;;;9.60;;
68212;SDS011;55035;47.792;8.724;2022-07-29T00:59:56;12.73;;;8.70;;
68212;SDS011;55035;47.792;8.724;2022-07-29T01:02:23;12.20;;;8.40;;
68212;SDS011;55035;47.792;8.724;2022-07-29T01:04:50;12.67;;;8.20;;
68212;SDS011;55035;47.792;8.724;2022-07-29T01:07:17;10.65;;;7.50;;
68212;SDS011;55035;47.792;8.724;2022-07-29T01:09:44;12.60;;;8.70;;
68212;SDS011;55035;47.792;8.724;2022-07-29T01:12:13;13.35;;;9.00;;
68212;SDS011;55035;47.792;8.724;2022-07-29T01:14:41;13.40;;;9.35;;
68212;SDS011;55035;47.792;8.724;2022-07-29T01:17:10;13.00;;;9.30;;
68212;SDS011;55035;47.792;8.724;2022-07-29T01:19:47;13.63;;;9.98;;
68212;SDS011;55035;47.792;8.724;2022-07-29T01:22:19;14.73;;;9.40;;
68212;SDS011;55035;47.792;8.724;2022-07-29T01:24:54;13.95;;;10.45;;
68212;SDS011;55035;47.792;8.724;2022-07-29T01:27:30;13.50;;;9.30;;
68212;SDS011;55035;47.792;8.724;2022-07-29T01:30:01;12.75;;;8.65;;
68212;SDS011;55035;47.792;8.724;2022-07-29T01:32:29;13.35;;;8.88;;
68212;SDS011;55035;47.792;8.724;2022-07-29T01:34:58;12.18;;;8.55;;
68212;SDS011;55035;47.792;8.724;2022-07-29T01:37:29;13.95;;;9.18;;
68212;SDS011;55035;47.792;8.724;2022-07-29T01:39:58;14.18;;;9.75;;
68212;SDS011;55035;47.792;8.724;2022-07-29T01:42:27;14.77;;;9.88;;
68212;SDS011;55035;47.792;8.724;2022-07-29T01:44:57;13.88;;;9.27;;
68212;SDS011;55035;47.792;8.724;2022-07-29T01:47:32;13.48;;;8.70;;
68212;SDS011;55035;47.792;8.724;2022-07-29T01:50:00;13.00;;;8.90;;
68212;SDS011;55035;47.792;8.724;2022-07-29T01:52:31;15.02;;;9.70;;
68212;SDS011;55035;47.792;8.724;2022-07-29T01:55:02;14.15;;;10.02;;
68212;SDS011;55035;47.792;8.724;2022-07-29T01:57:31;15.13;;;10.52;;
68212;SDS011;55035;47.792;8.724;2022-07-29T01:59:58;14.27;;;9.35;;
68212;SDS011;55035;47.792;8.724;2022-07-29T02:02:28;13.40;;;9.30;;
68212;SDS011;55035;47.792;8.724;2022-07-29T02:04:55;13.60;;;9.10;;
68212;SDS011;55035;47.792;8.724;2022-07-29T02:07:23;15.03;;;10.00;;
68212;SDS011;55035;47.792;8.724;2022-07-29T02:09:51;13.57;;;9.35;;
68212;SDS011;55035;47.792;8.724;2022-07-29T02:12:19;13.30;;;8.85;;
68212;SDS011;55035;47.792;8.724;2022-07-29T02:14:47;13.77;;;9.87;;
68212;SDS011;55035;47.792;8.724;2022-07-29T02:17:15;12.73;;;8.52;;
68212;SDS011;55035;47.792;8.724;2022-07-29T02:19:46;12.77;;;8.18;;
68212;SDS011;55035;47.792;8.724;2022-07-29T02:22:13;12.07;;;7.85;;
68212;SDS011;55035;47.792;8.724;2022-07-29T02:24:41;11.45;;;7.63;;
68212;SDS011;55035;47.792;8.724;2022-07-29T02:27:08;11.88;;;7.82;;
68212;SDS011;55035;47.792;8.724;2022-07-29T02:29:35;13.98;;;8.43;;
68212;SDS011;55035;47.792;8.724;2022-07-29T02:32:03;14.73;;;9.85;;
68212;SDS011;55035;47.792;8.724;2022-07-29T02:34:31;12.37;;;7.97;;
68212;SDS011;55035;47.792;8.724;2022-07-29T02:37:00;12.00;;;7.57;;
68212;SDS011;55035;47.792;8.724;2022-07-29T02:39:27;12.30;;;7.70;;
68212;SDS011;55035;47.792;8.724;2022-07-29T02:41:55;12.13;;;7.90;;
68212;SDS011;55035;47.792;8.724;2022-07-29T02:44:24;13.55;;;8.40;;
68212;SDS011;55035;47.792;8.724;2022-07-29T02:46:51;12.13;;;8.25;;
68212;SDS011;55035;47.792;8.724;2022-07-29T02:49:23;12.40;;;8.00;;
68212;SDS011;55035;47.792;8.724;2022-07-29T02:51:55;12.17;;;8.23;;
68212;SDS011;55035;47.792;8.724;2022-07-29T02:54:26;13.65;;;9.20;;
68212;SDS011;55035;47.792;8.724;2022-07-29T02:56:56;18.23;;;9.50;;
68212;SDS011;55035;47.792;8.724;2022-07-29T02:59:24;13.37;;;8.70;;
68212;SDS011;55035;47.792;8.724;2022-07-29T03:01:54;12.30;;;7.95;;
68212;SDS011;55035;47.792;8.724;2022-07-29T03:04:22;12.65;;;8.63;;
68212;SDS011;55035;47.792;8.724;2022-07-29T03:06:49;11.90;;;7.30;;
68212;SDS011;55035;47.792;8.724;2022-07-29T03:09:17;11.25;;;6.68;;
68212;SDS011;55035;47.792;8.724;2022-07-29T03:11:46;11.07;;;6.88;;
68212;SDS011;55035;47.792;8.724;2022-07-29T03:14:13;11.63;;;7.70;;
68212;SDS011;55035;47.792;8.724;2022-07-29T03:16:40;10.40;;;6.88;;
68212;SDS011;55035;47.792;8.724;2022-07-29T03:19:07;11.25;;;7.50;;
68212;SDS011;55035;47.792;8.724;2022-07-29T03:21:34;13.07;;;8.00;;
68212;SDS011;55035;47.792;8.724;2022-07-29T03:24:01;15.98;;;11.68;;
68212;SDS011;55035;47.792;8.724;2022-07-29T03:26:28;12.80;;;9.20;;
68212;SDS011;55035;47.792;8.724;2022-07-29T03:28:56;13.18;;;8.55;;
68212;SDS011;55035;47.792;8.724;2022-07-29T03:31:23;13.93;;;8.70;;
68212;SDS011;55035;47.792;8.724;2022-07-29T03:33:49;13.15;;;9.07;;
68212;SDS011;55035;47.792;8.724;2022-07-29T03:36:16;13.18;;;8.80;;
68212;SDS011;55035;47.792;8.724;2022-07-29T03:38:43;12.50;;;8.80;;
68212;SDS011;55035;47.792;8.724;2022-07-29T03:41:11;15.40;;;9.70;;
68212;SDS011;55035;47.792;8.724;2022-07-29T03:43:40;12.18;;;8.27;;
68212;SDS011;55035;47.792;8.724;2022-07-29T03:46:08;12.93;;;8.50;;
68212;SDS011;55035;47.792;8.724;2022-07-29T03:48:37;15.65;;;10.30;;
68212;SDS011;55035;47.792;8.724;2022-07-29T03:51:06;13.90;;;9.40;;
68212;SDS011;55035;47.792;8.724;2022-07-29T03:53:33;11.87;;;8.40;;
68212;SDS011;55035;47.792;8.724;2022-07-29T03:56:02;13.75;;;8.68;;
68212;SDS011;55035;47.792;8.724;2022-07-29T03:58:29;12.53;;;8.90;;
68212;SDS011;55035;47.792;8.724;2022-07-29T04:00:57;15.25;;;9.68;;
68212;SDS011;55035;47.792;8.724;2022-07-29T04:03:26;13.70;;;9.50;;
68212;SDS011;55035;47.792;8.724;2022-07-29T04:05:59;14.20;;;9.07;;
68212;SDS011;55035;47.792;8.724;2022-07-29T04:08:26;14.05;;;9.43;;
68212;SDS011;55035;47.792;8.724;2022-07-29T04:10:53;13.93;;;9.38;;
68212;SDS011;55035;47.792;8.724;2022-07-29T04:13:20;14.77;;;9.10;;
68212;SDS011;55035;47.792;8.724;2022-07-29T04:15:47;13.90;;;9.30;;
68212;SDS011;55035;47.792;8.724;2022-07-29T04:18:14;12.95;;;8.10;;
68212;SDS011;55035;47.792;8.724;2022-07-29T04:20:42;11.35;;;7.53;;
68212;SDS011;55035;47.792;8.724;2022-07-29T04:23:09;12.90;;;7.75;;
68212;SDS011;55035;47.792;8.724;2022-07-29T04:25:36;13.70;;;8.73;;
68212;SDS011;55035;47.792;8.724;2022-07-29T04:28:04;13.20;;;8.60;;
68212;SDS011;55035;47.792;8.724;2022-07-29T04:30:31;12.48;;;8.50;;
68212;SDS011;55035;47.792;8.724;2022-07-29T04:32:58;12.87;;;8.67;;
68212;SDS011;55035;47.792;8.724;2022-07-29T04:35:26;12.18;;;8.10;;
68212;SDS011;55035;47.792;8.724;2022-07-29T04:37:54;12.70;;;7.60;;
68212;SDS011;55035;47.792;8.724;2022-07-29T04:40:21;11.00;;;7.28;;
68212;SDS011;55035;47.792;8.724;2022-07-29T04:42:50;11.88;;;7.55;;
68212;SDS011;55035;47.792;8.724;2022-07-29T04:45:16;11.48;;;7.57;;
68212;SDS011;55035;47.792;8.724;2022-07-29T04:47:43;10.85;;;7.40;;
68212;SDS011;55035;47.792;8.724;2022-07-29T04:50:10;11.63;;;6.93;;
68212;SDS011;55035;47.792;8.724;2022-07-29T04:52:40;11.88;;;7.47;;
68212;SDS011;55035;47.792;8.724;2022-07-29T04:55:09;50.63;;;34.47;;
68212;SDS011;55035;47.792;8.724;2022-07-29T04:57:35;24.95;;;15.15;;
68212;SDS011;55035;47.792;8.724;2022-07-29T05:00:03;54.00;;;33.53;;
68212;SDS011;55035;47.792;8.724;2022-07-29T05:02:30;12.57;;;7.55;;
68212;SDS011;55035;47.792;8.724;2022-07-29T05:04:57;12.65;;;6.68;;
68212;SDS011;55035;47.792;8.724;2022-07-29T05:07:24;11.95;;;7.60;;
68212;SDS011;55035;47.792;8.724;2022-07-29T05:09:51;11.98;;;7.05;;
68212;SDS011;55035;47.792;8.724;2022-07-29T05:12:20;10.63;;;7.10;;
68212;SDS011;55035;47.792;8.724;2022-07-29T05:14:47;11.13;;;7.20;;
68212;SDS011;55035;47.792;8.724;2022-07-29T05:17:14;10.10;;;6.75;;
68212;SDS011;55035;47.792;8.724;2022-07-29T05:19:41;11.88;;;7.35;;
68212;SDS011;55035;47.792;8.724;2022-07-29T05:22:07;13.73;;;6.27;;
68212;SDS011;55035;47.792;8.724;2022-07-29T05:24:34;10.18;;;5.60;;
68212;SDS011;55035;47.792;8.724;2022-07-29T05:27:01;10.70;;;5.70;;
68212;SDS011;55035;47.792;8.724;2022-07-29T05:29:29;9.73;;;5.78;;
68212;SDS011;55035;47.792;8.724;2022-07-29T05:31:59;10.00;;;6.00;;
68212;SDS011;55035;47.792;8.724;2022-07-29T05:34:25;10.32;;;6.35;;
68212;SDS011;55035;47.792;8.724;2022-07-29T05:36:52;9.93;;;5.88;;
68212;SDS011;55035;47.792;8.724;2022-07-29T05:39:19;11.00;;;6.20;;
68212;SDS011;55035;47.792;8.724;2022-07-29T05:41:46;11.10;;;6.60;;
68212;SDS011;55035;47.792;8.724;2022-07-29T05:44:13;10.52;;;6.65;;
68212;SDS011;55035;47.792;8.724;2022-07-29T05:46:41;11.30;;;6.97;;
68212;SDS011;55035;47.792;8.724;2022-07-29T05:49:08;11.60;;;6.97;;
68212;SDS011;55035;47.792;8.724;2022-07-29T05:51:35;10.80;;;6.90;;
68212;SDS011;55035;47.792;8.724;2022-07-29T05:54:02;10.90;;;6.82;;
68212;SDS011;55035;47.792;8.724;2022-07-29T05:56:29;10.32;;;6.70;;
68212;SDS011;55035;47.792;8.724;2022-07-29T05:58:56;10.73;;;6.60;;
68212;SDS011;55035;47.792;8.724;2022-07-29T06:01:22;11.35;;;6.40;;
68212;SDS011;55035;47.792;8.724;2022-07-29T06:03:50;10.30;;;5.70;;
68212;SDS011;55035;47.792;8.724;2022-07-29T06:06:17;11.10;;;5.50;;
68212;SDS011;55035;47.792;8.724;2022-07-29T06:08:44;11.47;;;6.67;;
68212;SDS011;55035;47.792;8.724;2022-07-29T06:11:11;10.45;;;6.18;;
68212;SDS011;55035;47.792;8.724;2022-07-29T06:13:38;8.27;;;4.72;;
68212;SDS011;55035;47.792;8.724;2022-07-29T06:16:05;8.90;;;4.40;;
68212;SDS011;55035;47.792;8.724;2022-07-29T06:18:32;8.30;;;4.37;;
68212;SDS011;55035;47.792;8.724;2022-07-29T06:21:00;8.00;;;4.20;;
68212;SDS011;55035;47.792;8.724;2022-07-29T06:23:26;9.15;;;4.55;;
68212;SDS011;55035;47.792;8.724;2022-07-29T06:25:53;7.57;;;4.28;;
68212;SDS011;55035;47.792;8.724;2022-07-29T06:28:20;9.10;;;4.37;;
68212;SDS011;55035;47.792;8.724;2022-07-29T06:30:47;8.32;;;4.68;;
68212;SDS011;55035;47.792;8.724;2022-07-29T06:33:17;7.85;;;4.30;;
68212;SDS011;55035;47.792;8.724;2022-07-29T06:35:44;8.07;;;4.38;;
68212;SDS011;55035;47.792;8.724;2022-07-29T06:38:13;7.80;;;4.30;;
68212;SDS011;55035;47.792;8.724;2022-07-29T06:40:41;7.73;;;3.83;;
68212;SDS011;55035;47.792;8.724;2022-07-29T06:43:26;8.23;;;3.93;;
68212;SDS011;55035;47.792;8.724;2022-07-29T06:45:55;8.20;;;4.15;;
68212;SDS011;55035;47.792;8.724;2022-07-29T06:48:22;8.02;;;4.00;;
68212;SDS011;55035;47.792;8.724;2022-07-29T06:50:51;8.70;;;4.00;;
68212;SDS011;55035;47.792;8.724;2022-07-29T06:53:19;7.40;;;3.97;;
68212;SDS011;55035;47.792;8.724;2022-07-29T06:55:46;8.77;;;4.23;;
68212;SDS011;55035;47.792;8.724;2022-07-29T06:58:12;8.05;;;4.10;;
68212;SDS011;55035;47.792;8.724;2022-07-29T07:00:41;7.60;;;4.00;;
68212;SDS011;55035;47.792;8.724;2022-07-29T07:03:08;7.53;;;3.63;;
68212;SDS011;55035;47.792;8.724;2022-07-29T07:05:35;7.72;;;3.50;;
68212;SDS011;55035;47.792;8.724;2022-07-29T07:08:02;9.20;;;3.50;;
68212;SDS011;55035;47.792;8.724;2022-07-29T07:10:30;8.02;;;3.97;;
68212;SDS011;55035;47.792;8.724;2022-07-29T07:12:57;9.23;;;4.40;;
68212;SDS011;55035;47.792;8.724;2022-07-29T07:15:23;8.77;;;4.55;;
68212;SDS011;55035;47.792;8.724;2022-07-29T07:17:50;9.15;;;4.45;;
68212;SDS011;55035;47.792;8.724;2022-07-29T07:20:17;8.30;;;4.80;;
68212;SDS011;55035;47.792;8.724;2022-07-29T07:22:44;10.65;;;5.22;;
68212;SDS011;55035;47.792;8.724;2022-07-29T07:25:11;8.32;;;4.78;;
68212;SDS011;55035;47.792;8.724;2022-07-29T07:27:40;8.68;;;4.50;;
68212;SDS011;55035;47.792;8.724;2022-07-29T07:30:06;9.07;;;4.60;;
68212;SDS011;55035;47.792;8.724;2022-07-29T07:32:34;8.80;;;4.10;;
68212;SDS011;55035;47.792;8.724;2022-07-29T07:35:03;7.60;;;3.90;;
68212;SDS011;55035;47.792;8.724;2022-07-29T07:37:30;8.50;;;3.80;;
68212;SDS011;55035;47.792;8.724;2022-07-29T07:39:57;7.22;;;3.67;;
68212;SDS011;55035;47.792;8.724;2022-07-29T07:42:24;7.28;;;3.63;;
68212;SDS011;55035;47.792;8.724;2022-07-29T07:44:52;7.70;;;3.40;;
68212;SDS011;55035;47.792;8.724;2022-07-29T07:47:20;8.05;;;3.75;;
68212;SDS011;55035;47.792;8.724;2022-07-29T07:49:49;7.10;;;3.25;;
68212;SDS011;55035;47.792;8.724;2022-07-29T07:52:16;6.75;;;3.40;;
68212;SDS011;55035;47.792;8.724;2022-07-29T07:54:43;7.73;;;3.80;;
68212;SDS011;55035;47.792;8.724;2022-07-29T07:57:10;9.20;;;3.72;;
68212;SDS011;55035;47.792;8.724;2022-07-29T07:59:37;7.38;;;3.40;;
68212;SDS011;55035;47.792;8.724;2022-07-29T08:02:08;7.67;;;3.63;;
68212;SDS011;55035;47.792;8.724;2022-07-29T08:04:35;7.20;;;3.40;;
68212;SDS011;55035;47.792;8.724;2022-07-29T08:07:05;7.75;;;3.55;;
68212;SDS011;55035;47.792;8.724;2022-07-29T08:09:32;7.18;;;3.70;;
68212;SDS011;55035;47.792;8.724;2022-07-29T08:11:59;7.55;;;3.35;;
68212;SDS011;55035;47.792;8.724;2022-07-29T08:14:29;9.55;;;3.50;;
68212;SDS011;55035;47.792;8.724;2022-07-29T08:16:55;7.90;;;3.53;;
68212;SDS011;55035;47.792;8.724;2022-07-29T08:19:24;8.07;;;3.40;;
68212;SDS011;55035;47.792;8.724;2022-07-29T08:21:51;7.35;;;3.60;;
68212;SDS011;55035;47.792;8.724;2022-07-29T08:24:18;7.65;;;3.70;;
68212;SDS011;55035;47.792;8.724;2022-07-29T08:27:02;7.85;;;3.40;;
68212;SDS011;55035;47.792;8.724;2022-07-29T08:29:29;8.32;;;3.53;;
68212;SDS011;55035;47.792;8.724;2022-07-29T08:31:56;8.33;;;3.50;;
68212;SDS011;55035;47.792;8.724;2022-07-29T08:34:24;7.65;;;3.50;;
68212;SDS011;55035;47.792;8.724;2022-07-29T08:36:51;7.90;;;3.30;;
68212;SDS011;55035;47.792;8.724;2022-07-29T08:39:18;8.27;;;3.70;;
68212;SDS011;55035;47.792;8.724;2022-07-29T08:41:45;8.05;;;3.65;;
68212;SDS011;55035;47.792;8.724;2022-07-29T08:44:12;9.10;;;3.25;;
68212;SDS011;55035;47.792;8.724;2022-07-29T08:46:40;8.02;;;3.22;;
68212;SDS011;55035;47.792;8.724;2022-07-29T08:49:08;7.20;;;3.30;;
68212;SDS011;55035;47.792;8.724;2022-07-29T08:51:36;8.23;;;3.30;;
68212;SDS011;55035;47.792;8.724;2022-07-29T08:54:08;8.33;;;3.50;;
68212;SDS011;55035;47.792;8.724;2022-07-29T08:56:35;8.82;;;3.60;;
68212;SDS011;55035;47.792;8.724;2022-07-29T08:59:02;7.35;;;3.40;;
68212;SDS011;55035;47.792;8.724;2022-07-29T09:01:29;8.27;;;3.78;;
68212;SDS011;55035;47.792;8.724;2022-07-29T09:03:57;10.77;;;3.90;;
68212;SDS011;55035;47.792;8.724;2022-07-29T09:06:27;8.30;;;4.00;;
68212;SDS011;55035;47.792;8.724;2022-07-29T09:08:59;8.88;;;4.20;;
68212;SDS011;55035;47.792;8.724;2022-07-29T09:11:26;7.97;;;3.90;;
68212;SDS011;55035;47.792;8.724;2022-07-29T09:13:53;8.57;;;4.00;;
68212;SDS011;55035;47.792;8.724;2022-07-29T09:16:20;6.32;;;3.30;;
68212;SDS011;55035;47.792;8.724;2022-07-29T09:18:47;8.18;;;3.65;;
68212;SDS011;55035;47.792;8.724;2022-07-29T09:21:15;8.40;;;3.60;;
68212;SDS011;55035;47.792;8.724;2022-07-29T09:24:05;12.07;;;3.90;;
68212;SDS011;55035;47.792;8.724;2022-07-29T09:26:35;8.63;;;3.75;;
68212;SDS011;55035;47.792;8.724;2022-07-29T09:29:10;8.75;;;3.90;;
68212;SDS011;55035;47.792;8.724;2022-07-29T09:31:41;7.30;;;3.83;;
68212;SDS011;55035;47.792;8.724;2022-07-29T09:34:09;8.85;;;3.88;;
68212;SDS011;55035;47.792;8.724;2022-07-29T09:36:39;8.15;;;3.63;;
68212;SDS011;55035;47.792;8.724;2022-07-29T09:39:08;7.85;;;3.60;;
68212;SDS011;55035;47.792;8.724;2022-07-29T09:41:45;9.27;;;3.80;;
68212;SDS011;55035;47.792;8.724;2022-07-29T09:44:12;8.57;;;4.20;;
68212;SDS011;55035;47.792;8.724;2022-07-29T09:46:40;9.10;;;3.80;;
68212;SDS011;55035;47.792;8.724;2022-07-29T09:49:08;9.17;;;3.90;;
68212;SDS011;55035;47.792;8.724;2022-07-29T09:51:36;9.95;;;4.60;;
68212;SDS011;55035;47.792;8.724;2022-07-29T09:57:23;11.38;;;4.28;;
68212;SDS011;55035;47.792;8.724;2022-07-29T09:59:55;8.63;;;4.55;;
68212;SDS011;55035;47.792;8.724;2022-07-29T10:02:22;9.15;;;4.85;;
68212;SDS011;55035;47.792;8.724;2022-07-29T10:04:53;9.38;;;4.65;;
68212;SDS011;55035;47.792;8.724;2022-07-29T10:07:20;10.43;;;4.60;;
68212;SDS011;55035;47.792;8.724;2022-07-29T10:09:52;8.33;;;4.60;;
68212;SDS011;55035;47.792;8.724;2022-07-29T10:12:19;8.63;;;4.20;;
68212;SDS011;55035;47.792;8.724;2022-07-29T10:14:48;8.35;;;4.00;;
68212;SDS011;55035;47.792;8.724;2022-07-29T10:17:17;8.82;;;3.88;;
68212;SDS011;55035;47.792;8.724;2022-07-29T10:19:44;8.93;;;4.15;;
68212;SDS011;55035;47.792;8.724;2022-07-29T10:22:11;10.30;;;4.65;;
68212;SDS011;55035;47.792;8.724;2022-07-29T10:24:38;7.90;;;3.90;;
68212;SDS011;55035;47.792;8.724;2022-07-29T10:27:07;8.32;;;4.53;;
68212;SDS011;55035;47.792;8.724;2022-07-29T10:29:34;8.32;;;4.10;;
68212;SDS011;55035;47.792;8.724;2022-07-29T10:34:55;8.33;;;4.40;;
68212;SDS011;55035;47.792;8.724;2022-07-29T10:37:31;7.47;;;4.07;;
68212;SDS011;55035;47.792;8.724;2022-07-29T10:40:00;8.00;;;4.22;;
68212;SDS011;55035;47.792;8.724;2022-07-29T10:42:51;8.32;;;4.38;;
68212;SDS011;55035;47.792;8.724;2022-07-29T10:45:19;9.02;;;4.32;;
68212;SDS011;55035;47.792;8.724;2022-07-29T10:47:46;7.53;;;4.13;;
68212;SDS011;55035;47.792;8.724;2022-07-29T10:50:14;7.60;;;4.30;;
68212;SDS011;55035;47.792;8.724;2022-07-29T10:55:32;9.95;;;4.70;;
68212;SDS011;55035;47.792;8.724;2022-07-29T10:58:12;8.40;;;3.92;;
68212;SDS011;55035;47.792;8.724;2022-07-29T11:00:40;7.75;;;4.50;;
68212;SDS011;55035;47.792;8.724;2022-07-29T11:03:06;8.33;;;4.30;;
68212;SDS011;55035;47.792;8.724;2022-07-29T11:08:23;7.72;;;3.72;;
68212;SDS011;55035;47.792;8.724;2022-07-29T11:14:05;9.80;;;4.50;;
68212;SDS011;55035;47.792;8.724;2022-07-29T11:19:18;8.52;;;4.35;;
68212;SDS011;55035;47.792;8.724;2022-07-29T11:21:45;8.52;;;3.72;;
68212;SDS011;55035;47.792;8.724;2022-07-29T11:24:15;8.50;;;3.90;;
68212;SDS011;55035;47.792;8.724;2022-07-29T11:26:42;8.13;;;4.20;;
68212;SDS011;55035;47.792;8.724;2022-07-29T11:29:17;7.45;;;3.78;;
68212;SDS011;55035;47.792;8.724;2022-07-29T11:31:46;8.27;;;4.00;;
68212;SDS011;55035;47.792;8.724;2022-07-29T11:34:17;6.90;;;3.78;;
68212;SDS011;55035;47.792;8.724;2022-07-29T11:39:31;7.10;;;3.70;;
68212;SDS011;55035;47.792;8.724;2022-07-29T11:42:08;9.52;;;3.97;;
68212;SDS011;55035;47.792;8.724;2022-07-29T11:44:55;8.05;;;3.80;;
68212;SDS011;55035;47.792;8.724;2022-07-29T11:47:23;7.17;;;3.80;;
68212;SDS011;55035;47.792;8.724;2022-07-29T11:49:50;7.32;;;3.80;;
68212;SDS011;55035;47.792;8.724;2022-07-29T11:52:17;7.57;;;3.77;;
68212;SDS011;55035;47.792;8.724;2022-07-29T11:54:46;8.00;;;3.60;;
68212;SDS011;55035;47.792;8.724;2022-07-29T11:57:14;7.70;;;3.70;;
68212;SDS011;55035;47.792;8.724;2022-07-29T11:59:43;8.05;;;3.55;;
68212;SDS011;55035;47.792;8.724;2022-07-29T12:02:10;7.60;;;3.33;;
68212;SDS011;55035;47.792;8.724;2022-07-29T12:04:47;8.32;;;3.50;;
68212;SDS011;55035;47.792;8.724;2022-07-29T12:07:14;7.72;;;3.83;;
68212;SDS011;55035;47.792;8.724;2022-07-29T12:09:50;6.75;;;3.55;;
68212;SDS011;55035;47.792;8.724;2022-07-29T12:12:17;7.28;;;3.60;;
68212;SDS011;55035;47.792;8.724;2022-07-29T12:14:44;7.40;;;3.00;;
68212;SDS011;55035;47.792;8.724;2022-07-29T12:17:24;7.50;;;3.20;;
68212;SDS011;55035;47.792;8.724;2022-07-29T12:19:51;7.18;;;3.13;;
68212;SDS011;55035;47.792;8.724;2022-07-29T12:22:24;7.00;;;3.25;;
68212;SDS011;55035;47.792;8.724;2022-07-29T12:24:53;6.88;;;3.17;;
68212;SDS011;55035;47.792;8.724;2022-07-29T12:27:20;6.70;;;3.38;;
68212;SDS011;55035;47.792;8.724;2022-07-29T12:29:54;6.85;;;3.30;;
68212;SDS011;55035;47.792;8.724;2022-07-29T12:32:22;7.70;;;3.60;;
68212;SDS011;55035;47.792;8.724;2022-07-29T12:34:49;7.65;;;3.47;;
68212;SDS011;55035;47.792;8.724;2022-07-29T12:37:16;7.72;;;3.55;;
68212;SDS011;55035;47.792;8.724;2022-07-29T12:39:43;7.25;;;3.40;;
68212;SDS011;55035;47.792;8.724;2022-07-29T12:42:13;7.65;;;3.50;;
68212;SDS011;55035;47.792;8.724;2022-07-29T12:44:43;7.57;;;3.65;;
68212;SDS011;55035;47.792;8.724;2022-07-29T12:47:10;9.98;;;3.60;;
68212;SDS011;55035;47.792;8.724;2022-07-29T12:49:37;8.95;;;3.60;;
68212;SDS011;55035;47.792;8.724;2022-07-29T12:54:47;7.07;;;3.78;;
68212;SDS011;55035;47.792;8.724;2022-07-29T12:57:16;10.32;;;3.75;;
68212;SDS011;55035;47.792;8.724;2022-07-29T12:59:43;8.35;;;3.80;;
68212;SDS011;55035;47.792;8.724;2022-07-29T13:02:20;9.20;;;4.10;;
68212;SDS011;55035;47.792;8.724;2022-07-29T13:04:55;7.30;;;3.67;;
68212;SDS011;55035;47.792;8.724;2022-07-29T13:07:23;8.70;;;3.70;;
68212;SDS011;55035;47.792;8.724;2022-07-29T13:09:50;8.15;;;3.70;;
68212;SDS011;55035;47.792;8.724;2022-07-29T13:12:19;8.90;;;3.50;;
68212;SDS011;55035;47.792;8.724;2022-07-29T13:14:47;7.00;;;2.90;;
68212;SDS011;55035;47.792;8.724;2022-07-29T13:17:14;8.00;;;2.75;;
68212;SDS011;55035;47.792;8.724;2022-07-29T13:19:42;9.07;;;3.20;;
68212;SDS011;55035;47.792;8.724;2022-07-29T13:22:10;7.18;;;2.80;;
68212;SDS011;55035;47.792;8.724;2022-07-29T13:24:49;9.50;;;2.63;;
68212;SDS011;55035;47.792;8.724;2022-07-29T13:27:19;6.55;;;2.50;;
68212;SDS011;55035;47.792;8.724;2022-07-29T13:29:47;6.70;;;2.60;;
68212;SDS011;55035;47.792;8.724;2022-07-29T13:32:16;8.40;;;2.50;;
68212;SDS011;55035;47.792;8.724;2022-07-29T13:34:44;7.97;;;2.43;;
68212;SDS011;55035;47.792;8.724;2022-07-29T13:37:11;8.10;;;2.43;;
68212;SDS011;55035;47.792;8.724;2022-07-29T13:39:38;7.75;;;2.20;;
68212;SDS011;55035;47.792;8.724;2022-07-29T13:42:06;9.33;;;2.40;;
68212;SDS011;55035;47.792;8.724;2022-07-29T13:44:35;9.15;;;2.00;;
68212;SDS011;55035;47.792;8.724;2022-07-29T13:47:02;8.50;;;2.00;;
68212;SDS011;55035;47.792;8.724;2022-07-29T13:49:29;8.25;;;2.10;;
68212;SDS011;55035;47.792;8.724;2022-07-29T13:51:56;8.57;;;2.00;;
68212;SDS011;55035;47.792;8.724;2022-07-29T13:54:23;7.90;;;1.95;;
68212;SDS011;55035;47.792;8.724;2022-07-29T13:56:50;11.65;;;2.13;;
68212;SDS011;55035;47.792;8.724;2022-07-29T13:59:17;6.25;;;2.10;;
68212;SDS011;55035;47.792;8.724;2022-07-29T14:01:46;6.68;;;2.20;;
68212;SDS011;55035;47.792;8.724;2022-07-29T14:04:13;6.30;;;2.13;;
68212;SDS011;55035;47.792;8.724;2022-07-29T14:06:40;6.10;;;2.35;;
68212;SDS011;55035;47.792;8.724;2022-07-29T14:09:07;5.30;;;2.10;;
68212;SDS011;55035;47.792;8.724;2022-07-29T14:11:34;6.70;;;2.20;;
68212;SDS011;55035;47.792;8.724;2022-07-29T14:14:04;9.77;;;2.40;;
68212;SDS011;55035;47.792;8.724;2022-07-29T14:16:31;6.15;;;2.30;;
68212;SDS011;55035;47.792;8.724;2022-07-29T14:18:59;6.45;;;2.55;;
68212;SDS011;55035;47.792;8.724;2022-07-29T14:21:26;8.40;;;2.60;;
68212;SDS011;55035;47.792;8.724;2022-07-29T14:23:53;9.50;;;2.83;;
68212;SDS011;55035;47.792;8.724;2022-07-29T14:26:20;7.60;;;2.80;;
68212;SDS011;55035;47.792;8.724;2022-07-29T14:28:47;10.60;;;3.30;;
68212;SDS011;55035;47.792;8.724;2022-07-29T14:31:14;8.37;;;3.37;;
68212;SDS011;55035;47.792;8.724;2022-07-29T14:33:44;7.72;;;3.28;;
68212;SDS011;55035;47.792;8.724;2022-07-29T14:36:13;8.20;;;2.90;;
68212;SDS011;55035;47.792;8.724;2022-07-29T14:38:40;6.05;;;2.03;;
68212;SDS011;55035;47.792;8.724;2022-07-29T14:41:07;5.93;;;2.10;;
68212;SDS011;55035;47.792;8.724;2022-07-29T14:43:34;5.80;;;1.97;;
68212;SDS011;55035;47.792;8.724;2022-07-29T14:46:01;6.57;;;1.63;;
68212;SDS011;55035;47.792;8.724;2022-07-29T14:48:28;6.18;;;2.08;;
68212;SDS011;55035;47.792;8.724;2022-07-29T14:50:55;6.33;;;2.00;;
68212;SDS011;55035;47.792;8.724;2022-07-29T14:53:24;8.67;;;2.00;;
68212;SDS011;55035;47.792;8.724;2022-07-29T14:55:50;5.40;;;2.20;;
68212;SDS011;55035;47.792;8.724;2022-07-29T14:58:18;6.53;;;2.20;;
68212;SDS011;55035;47.792;8.724;2022-07-29T15:00:46;6.03;;;2.10;;
68212;SDS011;55035;47.792;8.724;2022-07-29T15:03:14;5.50;;;2.10;;
68212;SDS011;55035;47.792;8.724;2022-07-29T15:05:41;8.20;;;3.80;;
68212;SDS011;55035;47.792;8.724;2022-07-29T15:08:08;7.40;;;2.60;;
68212;SDS011;55035;47.792;8.724;2022-07-29T15:10:36;5.90;;;2.58;;